sensor_id;sensor_type;location;lat;lon;timestamp;P1;durP1;ratioP1;P2;durP2;ratioP2
27907;SDS011;15249;48.092;11.484;2022-09-09T00:00:31;3.25;;;2.1;;
27907;SDS011;15249;48.092;11.484;2022-09-09T00:01:37;3.25;;;2.1;;
27907;SDS011;15249;48.092;11.484;2022-09-09T00:02:50;3.25;;;2.1;;
27907;SDS011;15249;48.092;11.484;2022-09-09T00:03:59;3.25;;;2.1;;
27907;SDS011;15249;48.092;11.484;2022-09-09T00:05:09;3.25;;;2.1;;
27907;SDS011;15249;48.092;11.484;2022-09-09T00:06:20;3.25;;;2.1;;
27907;SDS011;15249;48.092;11.484;2022-09-09T00:07:24;3.25;;;2.1;;
27907;SDS011;15249;48.092;11.484;2022-09-09T00:08:40;4.099999;;;2.05;;
27907;SDS011;15249;48.092;11.484;2022-09-09T00:09:52;4.099999;;;2.05;;
27907;SDS011;15249;48.092;11.484;2022-09-09T00:11:02;4.099999;;;2.05;;
27907;SDS011;15249;48.092;11.484;2022-09-09T00:12:05;4.099999;;;2.05;;
27907;SDS011;15249;48.092;11.484;2022-09-09T00:13:14;4.099999;;;2.05;;
27907;SDS011;15249;48.092;11.484;2022-09-09T00:14:23;4.099999;;;2.05;;
27907;SDS011;15249;48.092;11.484;2022-09-09T00:15:34;4.099999;;;2.05;;
27907;SDS011;15249;48.092;11.484;2022-09-09T00:16:41;4.099999;;;2.05;;
27907;SDS011;15249;48.092;11.484;2022-09-09T00:17:48;4.099999;;;2.05;;
27907;SDS011;15249;48.092;11.484;2022-09-09T00:18:56;3.9;;;2.45;;
27907;SDS011;15249;48.092;11.484;2022-09-09T00:20:05;3.9;;;2.45;;
27907;SDS011;15249;48.092;11.484;2022-09-09T00:21:13;3.9;;;2.45;;
27907;SDS011;15249;48.092;11.484;2022-09-09T00:22:15;3.9;;;2.45;;
27907;SDS011;15249;48.092;11.484;2022-09-09T00:23:20;3.9;;;2.45;;
27907;SDS011;15249;48.092;11.484;2022-09-09T00:24:26;3.9;;;2.45;;
27907;SDS011;15249;48.092;11.484;2022-09-09T00:25:34;3.9;;;2.45;;
27907;SDS011;15249;48.092;11.484;2022-09-09T00:26:42;3.9;;;2.45;;
27907;SDS011;15249;48.092;11.484;2022-09-09T00:27:46;3.9;;;2.45;;
27907;SDS011;15249;48.092;11.484;2022-09-09T00:28:49;3.9;;;2.45;;
27907;SDS011;15249;48.092;11.484;2022-09-09T00:29:55;3.4;;;2.4;;
27907;SDS011;15249;48.092;11.484;2022-09-09T00:31:04;3.4;;;2.4;;
27907;SDS011;15249;48.092;11.484;2022-09-09T00:32:14;3.4;;;2.4;;
27907;SDS011;15249;48.092;11.484;2022-09-09T00:33:19;3.4;;;2.4;;
27907;SDS011;15249;48.092;11.484;2022-09-09T00:34:23;3.4;;;2.4;;
27907;SDS011;15249;48.092;11.484;2022-09-09T00:35:27;3.4;;;2.4;;
27907;SDS011;15249;48.092;11.484;2022-09-09T00:36:32;3.4;;;2.4;;
27907;SDS011;15249;48.092;11.484;2022-09-09T00:37:36;3.4;;;2.4;;
27907;SDS011;15249;48.092;11.484;2022-09-09T00:38:38;3.4;;;2.4;;
27907;SDS011;15249;48.092;11.484;2022-09-09T00:39:42;3.4;;;2.4;;
27907;SDS011;15249;48.092;11.484;2022-09-09T00:40:48;4.35;;;2.25;;
27907;SDS011;15249;48.092;11.484;2022-09-09T00:41:52;4.35;;;2.25;;
27907;SDS011;15249;48.092;11.484;2022-09-09T00:43:13;4.35;;;2.25;;
27907;SDS011;15249;48.092;11.484;2022-09-09T00:44:26;4.35;;;2.25;;
27907;SDS011;15249;48.092;11.484;2022-09-09T00:45:37;4.35;;;2.25;;
27907;SDS011;15249;48.092;11.484;2022-09-09T00:46:55;4.35;;;2.25;;
27907;SDS011;15249;48.092;11.484;2022-09-09T00:48:05;4.35;;;2.25;;
27907;SDS011;15249;48.092;11.484;2022-09-09T00:49:13;4.35;;;2.25;;
27907;SDS011;15249;48.092;11.484;2022-09-09T00:50:26;4.35;;;2.25;;
27907;SDS011;15249;48.092;11.484;2022-09-09T00:51:40;3.1;;;2.15;;
27907;SDS011;15249;48.092;11.484;2022-09-09T00:52:55;3.1;;;2.15;;
27907;SDS011;15249;48.092;11.484;2022-09-09T00:54:15;3.1;;;2.15;;
27907;SDS011;15249;48.092;11.484;2022-09-09T00:55:28;3.1;;;2.15;;
27907;SDS011;15249;48.092;11.484;2022-09-09T00:56:43;3.1;;;2.15;;
27907;SDS011;15249;48.092;11.484;2022-09-09T00:57:53;3.1;;;2.15;;
27907;SDS011;15249;48.092;11.484;2022-09-09T00:58:56;3.1;;;2.15;;
27907;SDS011;15249;48.092;11.484;2022-09-09T01:00:16;3.1;;;2.15;;
27907;SDS011;15249;48.092;11.484;2022-09-09T01:01:20;3.9;;;2.1;;
27907;SDS011;15249;48.092;11.484;2022-09-09T01:02:26;3.9;;;2.1;;
27907;SDS011;15249;48.092;11.484;2022-09-09T01:03:30;3.9;;;2.1;;
27907;SDS011;15249;48.092;11.484;2022-09-09T01:04:36;3.9;;;2.1;;
27907;SDS011;15249;48.092;11.484;2022-09-09T01:05:39;3.9;;;2.1;;
27907;SDS011;15249;48.092;11.484;2022-09-09T01:06:46;3.9;;;2.1;;
27907;SDS011;15249;48.092;11.484;2022-09-09T01:07:54;3.9;;;2.1;;
27907;SDS011;15249;48.092;11.484;2022-09-09T01:09:00;3.9;;;2.1;;
27907;SDS011;15249;48.092;11.484;2022-09-09T01:10:09;3.9;;;2.1;;
27907;SDS011;15249;48.092;11.484;2022-09-09T01:11:16;3.9;;;2.1;;
27907;SDS011;15249;48.092;11.484;2022-09-09T01:12:25;3.9;;;2.1;;
27907;SDS011;15249;48.092;11.484;2022-09-09T01:13:34;3.9;;;2.1;;
27907;SDS011;15249;48.092;11.484;2022-09-09T01:14:39;3.9;;;2.1;;
27907;SDS011;15249;48.092;11.484;2022-09-09T01:15:43;3.9;;;2.1;;
27907;SDS011;15249;48.092;11.484;2022-09-09T01:16:45;3.9;;;2.1;;
27907;SDS011;15249;48.092;11.484;2022-09-09T01:17:50;3.9;;;2.1;;
27907;SDS011;15249;48.092;11.484;2022-09-09T01:18:55;3.9;;;2.1;;
27907;SDS011;15249;48.092;11.484;2022-09-09T01:20:02;3.9;;;2.1;;
27907;SDS011;15249;48.092;11.484;2022-09-09T01:21:08;3.9;;;2.1;;
27907;SDS011;15249;48.092;11.484;2022-09-09T01:22:18;3.9;;;2.1;;
27907;SDS011;15249;48.092;11.484;2022-09-09T01:23:38;3.75;;;2.1;;
27907;SDS011;15249;48.092;11.484;2022-09-09T01:24:50;3.75;;;2.1;;
27907;SDS011;15249;48.092;11.484;2022-09-09T01:26:10;3.75;;;2.1;;
27907;SDS011;15249;48.092;11.484;2022-09-09T01:27:16;3.75;;;2.1;;
27907;SDS011;15249;48.092;11.484;2022-09-09T01:28:19;3.75;;;2.1;;
27907;SDS011;15249;48.092;11.484;2022-09-09T01:29:23;3.75;;;2.1;;
27907;SDS011;15249;48.092;11.484;2022-09-09T01:30:25;3.75;;;2.1;;
27907;SDS011;15249;48.092;11.484;2022-09-09T01:31:28;3.75;;;2.1;;
27907;SDS011;15249;48.092;11.484;2022-09-09T01:32:37;3.75;;;2.1;;
27907;SDS011;15249;48.092;11.484;2022-09-09T01:33:40;3.6;;;2.2;;
27907;SDS011;15249;48.092;11.484;2022-09-09T01:34:41;3.6;;;2.2;;
27907;SDS011;15249;48.092;11.484;2022-09-09T01:35:43;3.6;;;2.2;;
27907;SDS011;15249;48.092;11.484;2022-09-09T01:36:51;3.6;;;2.2;;
27907;SDS011;15249;48.092;11.484;2022-09-09T01:37:58;3.6;;;2.2;;
27907;SDS011;15249;48.092;11.484;2022-09-09T01:38:58;3.6;;;2.2;;
27907;SDS011;15249;48.092;11.484;2022-09-09T01:39:59;3.6;;;2.2;;
27907;SDS011;15249;48.092;11.484;2022-09-09T01:41:00;3.6;;;2.2;;
27907;SDS011;15249;48.092;11.484;2022-09-09T01:42:01;3.6;;;2.2;;
27907;SDS011;15249;48.092;11.484;2022-09-09T01:43:02;3.6;;;2.2;;
27907;SDS011;15249;48.092;11.484;2022-09-09T01:44:04;4;;;2;;
27907;SDS011;15249;48.092;11.484;2022-09-09T01:45:06;4;;;2;;
27907;SDS011;15249;48.092;11.484;2022-09-09T01:46:07;4;;;2;;
27907;SDS011;15249;48.092;11.484;2022-09-09T01:47:08;4;;;2;;
27907;SDS011;15249;48.092;11.484;2022-09-09T01:48:09;4;;;2;;
27907;SDS011;15249;48.092;11.484;2022-09-09T01:49:10;4;;;2;;
27907;SDS011;15249;48.092;11.484;2022-09-09T01:50:12;4;;;2;;
27907;SDS011;15249;48.092;11.484;2022-09-09T01:51:16;4;;;2;;
27907;SDS011;15249;48.092;11.484;2022-09-09T01:52:16;4;;;2;;
27907;SDS011;15249;48.092;11.484;2022-09-09T01:53:18;4;;;2;;
27907;SDS011;15249;48.092;11.484;2022-09-09T01:54:20;4;;;2;;
27907;SDS011;15249;48.092;11.484;2022-09-09T01:55:28;2.4;;;2.2;;
27907;SDS011;15249;48.092;11.484;2022-09-09T01:56:34;2.4;;;2.2;;
27907;SDS011;15249;48.092;11.484;2022-09-09T01:57:41;2.4;;;2.2;;
27907;SDS011;15249;48.092;11.484;2022-09-09T01:58:53;2.4;;;2.2;;
27907;SDS011;15249;48.092;11.484;2022-09-09T02:00:04;2.4;;;2.2;;
27907;SDS011;15249;48.092;11.484;2022-09-09T02:01:08;2.4;;;2.2;;
27907;SDS011;15249;48.092;11.484;2022-09-09T02:02:17;2.4;;;2.2;;
27907;SDS011;15249;48.092;11.484;2022-09-09T02:03:20;2.4;;;2.2;;
27907;SDS011;15249;48.092;11.484;2022-09-09T02:04:29;2.4;;;2.2;;
27907;SDS011;15249;48.092;11.484;2022-09-09T02:05:36;2.25;;;2.05;;
27907;SDS011;15249;48.092;11.484;2022-09-09T02:06:39;2.25;;;2.05;;
27907;SDS011;15249;48.092;11.484;2022-09-09T02:07:41;2.25;;;2.05;;
27907;SDS011;15249;48.092;11.484;2022-09-09T02:08:44;2.25;;;2.05;;
27907;SDS011;15249;48.092;11.484;2022-09-09T02:09:49;2.25;;;2.05;;
27907;SDS011;15249;48.092;11.484;2022-09-09T02:10:58;2.25;;;2.05;;
27907;SDS011;15249;48.092;11.484;2022-09-09T02:12:08;2.25;;;2.05;;
27907;SDS011;15249;48.092;11.484;2022-09-09T02:13:14;2.25;;;2.05;;
27907;SDS011;15249;48.092;11.484;2022-09-09T02:14:18;2.25;;;2.05;;
27907;SDS011;15249;48.092;11.484;2022-09-09T02:15:26;2.25;;;2.05;;
27907;SDS011;15249;48.092;11.484;2022-09-09T02:16:34;4.5;;;2.3;;
27907;SDS011;15249;48.092;11.484;2022-09-09T02:17:39;4.5;;;2.3;;
27907;SDS011;15249;48.092;11.484;2022-09-09T02:18:42;4.5;;;2.3;;
27907;SDS011;15249;48.092;11.484;2022-09-09T02:19:49;4.5;;;2.3;;
27907;SDS011;15249;48.092;11.484;2022-09-09T02:20:56;4.5;;;2.3;;
27907;SDS011;15249;48.092;11.484;2022-09-09T02:21:59;4.5;;;2.3;;
27907;SDS011;15249;48.092;11.484;2022-09-09T02:23:01;4.5;;;2.3;;
27907;SDS011;15249;48.092;11.484;2022-09-09T02:24:05;4.5;;;2.3;;
27907;SDS011;15249;48.092;11.484;2022-09-09T02:25:08;4.5;;;2.3;;
27907;SDS011;15249;48.092;11.484;2022-09-09T02:26:14;4.5;;;2.3;;
27907;SDS011;15249;48.092;11.484;2022-09-09T02:27:18;4;;;2.35;;
27907;SDS011;15249;48.092;11.484;2022-09-09T02:28:21;4;;;2.35;;
27907;SDS011;15249;48.092;11.484;2022-09-09T02:29:26;4;;;2.35;;
27907;SDS011;15249;48.092;11.484;2022-09-09T02:30:31;4;;;2.35;;
27907;SDS011;15249;48.092;11.484;2022-09-09T02:31:35;4;;;2.35;;
27907;SDS011;15249;48.092;11.484;2022-09-09T02:32:39;4;;;2.35;;
27907;SDS011;15249;48.092;11.484;2022-09-09T02:33:44;4;;;2.35;;
27907;SDS011;15249;48.092;11.484;2022-09-09T02:34:58;4;;;2.35;;
27907;SDS011;15249;48.092;11.484;2022-09-09T02:36:07;4;;;2.35;;
27907;SDS011;15249;48.092;11.484;2022-09-09T02:37:10;4;;;2.35;;
27907;SDS011;15249;48.092;11.484;2022-09-09T02:38:12;2.45;;;2.2;;
27907;SDS011;15249;48.092;11.484;2022-09-09T02:39:15;2.45;;;2.2;;
27907;SDS011;15249;48.092;11.484;2022-09-09T02:40:16;2.45;;;2.2;;
27907;SDS011;15249;48.092;11.484;2022-09-09T02:41:16;2.45;;;2.2;;
27907;SDS011;15249;48.092;11.484;2022-09-09T02:42:19;2.45;;;2.2;;
27907;SDS011;15249;48.092;11.484;2022-09-09T02:43:19;2.45;;;2.2;;
27907;SDS011;15249;48.092;11.484;2022-09-09T02:44:20;2.45;;;2.2;;
27907;SDS011;15249;48.092;11.484;2022-09-09T02:45:22;2.45;;;2.2;;
27907;SDS011;15249;48.092;11.484;2022-09-09T02:46:32;2.45;;;2.2;;
27907;SDS011;15249;48.092;11.484;2022-09-09T02:47:44;2.45;;;2.2;;
27907;SDS011;15249;48.092;11.484;2022-09-09T02:48:52;2.55;;;2.1;;
27907;SDS011;15249;48.092;11.484;2022-09-09T02:50:02;2.55;;;2.1;;
27907;SDS011;15249;48.092;11.484;2022-09-09T02:51:10;2.55;;;2.1;;
27907;SDS011;15249;48.092;11.484;2022-09-09T02:52:19;2.55;;;2.1;;
27907;SDS011;15249;48.092;11.484;2022-09-09T02:53:23;2.55;;;2.1;;
27907;SDS011;15249;48.092;11.484;2022-09-09T02:54:31;2.55;;;2.1;;
27907;SDS011;15249;48.092;11.484;2022-09-09T02:55:37;2.55;;;2.1;;
27907;SDS011;15249;48.092;11.484;2022-09-09T02:56:40;2.55;;;2.1;;
27907;SDS011;15249;48.092;11.484;2022-09-09T02:57:47;2.55;;;2.1;;
27907;SDS011;15249;48.092;11.484;2022-09-09T02:58:49;3.25;;;2.15;;
27907;SDS011;15249;48.092;11.484;2022-09-09T02:59:50;3.25;;;2.15;;
27907;SDS011;15249;48.092;11.484;2022-09-09T03:00:51;3.25;;;2.15;;
27907;SDS011;15249;48.092;11.484;2022-09-09T03:01:53;3.25;;;2.15;;
27907;SDS011;15249;48.092;11.484;2022-09-09T03:02:54;3.25;;;2.15;;
27907;SDS011;15249;48.092;11.484;2022-09-09T03:03:55;3.25;;;2.15;;
27907;SDS011;15249;48.092;11.484;2022-09-09T03:04:55;3.25;;;2.15;;
27907;SDS011;15249;48.092;11.484;2022-09-09T03:05:57;3.25;;;2.15;;
27907;SDS011;15249;48.092;11.484;2022-09-09T03:06:57;3.25;;;2.15;;
27907;SDS011;15249;48.092;11.484;2022-09-09T03:07:58;3.25;;;2.15;;
27907;SDS011;15249;48.092;11.484;2022-09-09T03:09:01;3.25;;;2.15;;
27907;SDS011;15249;48.092;11.484;2022-09-09T03:10:02;4.05;;;2;;
27907;SDS011;15249;48.092;11.484;2022-09-09T03:11:03;4.05;;;2;;
27907;SDS011;15249;48.092;11.484;2022-09-09T03:12:04;4.05;;;2;;
27907;SDS011;15249;48.092;11.484;2022-09-09T03:13:05;4.05;;;2;;
27907;SDS011;15249;48.092;11.484;2022-09-09T03:14:06;4.05;;;2;;
27907;SDS011;15249;48.092;11.484;2022-09-09T03:15:07;4.05;;;2;;
27907;SDS011;15249;48.092;11.484;2022-09-09T03:16:08;4.05;;;2;;
27907;SDS011;15249;48.092;11.484;2022-09-09T03:17:09;4.05;;;2;;
27907;SDS011;15249;48.092;11.484;2022-09-09T03:18:09;4.05;;;2;;
27907;SDS011;15249;48.092;11.484;2022-09-09T03:19:10;4.05;;;2;;
27907;SDS011;15249;48.092;11.484;2022-09-09T03:20:11;3;;;1.9;;
27907;SDS011;15249;48.092;11.484;2022-09-09T03:21:11;3;;;1.9;;
27907;SDS011;15249;48.092;11.484;2022-09-09T03:22:13;3;;;1.9;;
27907;SDS011;15249;48.092;11.484;2022-09-09T03:23:13;3;;;1.9;;
27907;SDS011;15249;48.092;11.484;2022-09-09T03:24:14;3;;;1.9;;
27907;SDS011;15249;48.092;11.484;2022-09-09T03:25:15;3;;;1.9;;
27907;SDS011;15249;48.092;11.484;2022-09-09T03:26:15;3;;;1.9;;
27907;SDS011;15249;48.092;11.484;2022-09-09T03:27:16;3;;;1.9;;
27907;SDS011;15249;48.092;11.484;2022-09-09T03:28:16;3;;;1.9;;
27907;SDS011;15249;48.092;11.484;2022-09-09T03:29:18;3;;;1.9;;
27907;SDS011;15249;48.092;11.484;2022-09-09T03:30:19;3;;;1.9;;
27907;SDS011;15249;48.092;11.484;2022-09-09T03:31:19;2.6;;;2.1;;
27907;SDS011;15249;48.092;11.484;2022-09-09T03:32:22;2.6;;;2.1;;
27907;SDS011;15249;48.092;11.484;2022-09-09T03:33:23;2.6;;;2.1;;
27907;SDS011;15249;48.092;11.484;2022-09-09T03:34:23;2.6;;;2.1;;
27907;SDS011;15249;48.092;11.484;2022-09-09T03:35:24;2.6;;;2.1;;
27907;SDS011;15249;48.092;11.484;2022-09-09T03:36:26;2.6;;;2.1;;
27907;SDS011;15249;48.092;11.484;2022-09-09T03:37:27;2.6;;;2.1;;
27907;SDS011;15249;48.092;11.484;2022-09-09T03:38:28;2.6;;;2.1;;
27907;SDS011;15249;48.092;11.484;2022-09-09T03:39:29;2.6;;;2.1;;
27907;SDS011;15249;48.092;11.484;2022-09-09T03:40:30;2.6;;;2.1;;
27907;SDS011;15249;48.092;11.484;2022-09-09T03:41:31;3.3;;;2.35;;
27907;SDS011;15249;48.092;11.484;2022-09-09T03:42:32;3.3;;;2.35;;
27907;SDS011;15249;48.092;11.484;2022-09-09T03:43:32;3.3;;;2.35;;
27907;SDS011;15249;48.092;11.484;2022-09-09T03:44:33;3.3;;;2.35;;
27907;SDS011;15249;48.092;11.484;2022-09-09T03:45:33;3.3;;;2.35;;
27907;SDS011;15249;48.092;11.484;2022-09-09T03:46:34;3.3;;;2.35;;
27907;SDS011;15249;48.092;11.484;2022-09-09T03:47:35;3.3;;;2.35;;
27907;SDS011;15249;48.092;11.484;2022-09-09T03:48:35;3.3;;;2.35;;
27907;SDS011;15249;48.092;11.484;2022-09-09T03:49:36;3.3;;;2.35;;
27907;SDS011;15249;48.092;11.484;2022-09-09T03:50:36;3.3;;;2.35;;
27907;SDS011;15249;48.092;11.484;2022-09-09T03:51:38;3.3;;;2.35;;
27907;SDS011;15249;48.092;11.484;2022-09-09T03:52:39;2.4;;;2.1;;
27907;SDS011;15249;48.092;11.484;2022-09-09T03:53:41;2.4;;;2.1;;
27907;SDS011;15249;48.092;11.484;2022-09-09T03:54:42;2.4;;;2.1;;
27907;SDS011;15249;48.092;11.484;2022-09-09T03:55:43;2.4;;;2.1;;
27907;SDS011;15249;48.092;11.484;2022-09-09T03:56:45;2.4;;;2.1;;
27907;SDS011;15249;48.092;11.484;2022-09-09T03:57:46;2.4;;;2.1;;
27907;SDS011;15249;48.092;11.484;2022-09-09T03:58:46;2.4;;;2.1;;
27907;SDS011;15249;48.092;11.484;2022-09-09T03:59:47;2.4;;;2.1;;
27907;SDS011;15249;48.092;11.484;2022-09-09T04:00:52;2.4;;;2.1;;
27907;SDS011;15249;48.092;11.484;2022-09-09T04:01:54;2.4;;;2.1;;
27907;SDS011;15249;48.092;11.484;2022-09-09T04:02:56;3.7;;;2.1;;
27907;SDS011;15249;48.092;11.484;2022-09-09T04:03:58;3.7;;;2.1;;
27907;SDS011;15249;48.092;11.484;2022-09-09T04:04:59;3.7;;;2.1;;
27907;SDS011;15249;48.092;11.484;2022-09-09T04:06:02;3.7;;;2.1;;
27907;SDS011;15249;48.092;11.484;2022-09-09T04:07:06;3.7;;;2.1;;
27907;SDS011;15249;48.092;11.484;2022-09-09T04:08:08;3.7;;;2.1;;
27907;SDS011;15249;48.092;11.484;2022-09-09T04:09:09;3.7;;;2.1;;
27907;SDS011;15249;48.092;11.484;2022-09-09T04:10:10;3.7;;;2.1;;
27907;SDS011;15249;48.092;11.484;2022-09-09T04:11:10;3.7;;;2.1;;
27907;SDS011;15249;48.092;11.484;2022-09-09T04:12:13;3.7;;;2.1;;
27907;SDS011;15249;48.092;11.484;2022-09-09T04:13:16;3.45;;;2.1;;
27907;SDS011;15249;48.092;11.484;2022-09-09T04:14:17;3.45;;;2.1;;
27907;SDS011;15249;48.092;11.484;2022-09-09T04:15:18;3.45;;;2.1;;
27907;SDS011;15249;48.092;11.484;2022-09-09T04:16:20;3.45;;;2.1;;
27907;SDS011;15249;48.092;11.484;2022-09-09T04:17:20;3.45;;;2.1;;
27907;SDS011;15249;48.092;11.484;2022-09-09T04:18:21;3.45;;;2.1;;
27907;SDS011;15249;48.092;11.484;2022-09-09T04:19:22;3.45;;;2.1;;
27907;SDS011;15249;48.092;11.484;2022-09-09T04:20:23;3.45;;;2.1;;
27907;SDS011;15249;48.092;11.484;2022-09-09T04:21:23;3.45;;;2.1;;
27907;SDS011;15249;48.092;11.484;2022-09-09T04:22:24;3.45;;;2.1;;
27907;SDS011;15249;48.092;11.484;2022-09-09T04:23:25;3.45;;;2.1;;
27907;SDS011;15249;48.092;11.484;2022-09-09T04:24:29;3.45;;;2.1;;
27907;SDS011;15249;48.092;11.484;2022-09-09T04:25:29;3.45;;;2.1;;
27907;SDS011;15249;48.092;11.484;2022-09-09T04:26:30;3.45;;;2.1;;
27907;SDS011;15249;48.092;11.484;2022-09-09T04:27:31;3.45;;;2.1;;
27907;SDS011;15249;48.092;11.484;2022-09-09T04:28:32;3.45;;;2.1;;
27907;SDS011;15249;48.092;11.484;2022-09-09T04:29:33;3.45;;;2.1;;
27907;SDS011;15249;48.092;11.484;2022-09-09T04:30:34;3.45;;;2.1;;
27907;SDS011;15249;48.092;11.484;2022-09-09T04:31:35;3.45;;;2.1;;
27907;SDS011;15249;48.092;11.484;2022-09-09T04:32:36;3.45;;;2.1;;
27907;SDS011;15249;48.092;11.484;2022-09-09T04:33:38;3.45;;;2.1;;
27907;SDS011;15249;48.092;11.484;2022-09-09T04:34:39;3.45;;;2.1;;
27907;SDS011;15249;48.092;11.484;2022-09-09T04:35:43;3.45;;;2.1;;
27907;SDS011;15249;48.092;11.484;2022-09-09T04:36:45;3.45;;;2.1;;
27907;SDS011;15249;48.092;11.484;2022-09-09T04:37:46;3.45;;;2.1;;
27907;SDS011;15249;48.092;11.484;2022-09-09T04:38:48;3.45;;;2.1;;
27907;SDS011;15249;48.092;11.484;2022-09-09T04:39:48;3.45;;;2.1;;
27907;SDS011;15249;48.092;11.484;2022-09-09T04:40:49;3.45;;;2.1;;
27907;SDS011;15249;48.092;11.484;2022-09-09T04:41:51;3.45;;;2.1;;
27907;SDS011;15249;48.092;11.484;2022-09-09T04:42:51;3.45;;;2.1;;
27907;SDS011;15249;48.092;11.484;2022-09-09T04:43:53;3.45;;;2.1;;
27907;SDS011;15249;48.092;11.484;2022-09-09T04:44:54;3.45;;;2.1;;
27907;SDS011;15249;48.092;11.484;2022-09-09T04:45:55;4.6;;;2.2;;
27907;SDS011;15249;48.092;11.484;2022-09-09T04:46:56;4.6;;;2.2;;
27907;SDS011;15249;48.092;11.484;2022-09-09T04:47:56;4.6;;;2.2;;
27907;SDS011;15249;48.092;11.484;2022-09-09T04:48:57;4.6;;;2.2;;
27907;SDS011;15249;48.092;11.484;2022-09-09T04:49:57;4.6;;;2.2;;
27907;SDS011;15249;48.092;11.484;2022-09-09T04:50:59;4.6;;;2.2;;
27907;SDS011;15249;48.092;11.484;2022-09-09T04:52:01;4.6;;;2.2;;
27907;SDS011;15249;48.092;11.484;2022-09-09T04:53:02;4.6;;;2.2;;
27907;SDS011;15249;48.092;11.484;2022-09-09T04:54:02;4.6;;;2.2;;
27907;SDS011;15249;48.092;11.484;2022-09-09T04:55:03;4.6;;;2.2;;
27907;SDS011;15249;48.092;11.484;2022-09-09T04:56:06;2.85;;;2.15;;
27907;SDS011;15249;48.092;11.484;2022-09-09T04:57:10;2.85;;;2.15;;
27907;SDS011;15249;48.092;11.484;2022-09-09T04:58:11;2.85;;;2.15;;
27907;SDS011;15249;48.092;11.484;2022-09-09T04:59:11;2.85;;;2.15;;
27907;SDS011;15249;48.092;11.484;2022-09-09T05:00:13;2.85;;;2.15;;
27907;SDS011;15249;48.092;11.484;2022-09-09T05:01:15;2.85;;;2.15;;
27907;SDS011;15249;48.092;11.484;2022-09-09T05:02:17;2.85;;;2.15;;
27907;SDS011;15249;48.092;11.484;2022-09-09T05:03:17;2.85;;;2.15;;
27907;SDS011;15249;48.092;11.484;2022-09-09T05:04:19;2.85;;;2.15;;
27907;SDS011;15249;48.092;11.484;2022-09-09T05:05:20;2.85;;;2.15;;
27907;SDS011;15249;48.092;11.484;2022-09-09T05:06:21;2.85;;;2.15;;
27907;SDS011;15249;48.092;11.484;2022-09-09T05:07:22;3.2;;;2.15;;
27907;SDS011;15249;48.092;11.484;2022-09-09T05:08:23;3.2;;;2.15;;
27907;SDS011;15249;48.092;11.484;2022-09-09T05:09:23;3.2;;;2.15;;
27907;SDS011;15249;48.092;11.484;2022-09-09T05:10:24;3.2;;;2.15;;
27907;SDS011;15249;48.092;11.484;2022-09-09T05:11:25;3.2;;;2.15;;
27907;SDS011;15249;48.092;11.484;2022-09-09T05:12:26;3.2;;;2.15;;
27907;SDS011;15249;48.092;11.484;2022-09-09T05:13:27;3.2;;;2.15;;
27907;SDS011;15249;48.092;11.484;2022-09-09T05:14:28;3.2;;;2.15;;
27907;SDS011;15249;48.092;11.484;2022-09-09T05:15:28;3.2;;;2.15;;
27907;SDS011;15249;48.092;11.484;2022-09-09T05:16:30;3.2;;;2.15;;
27907;SDS011;15249;48.092;11.484;2022-09-09T05:17:31;2.3;;;1.9;;
27907;SDS011;15249;48.092;11.484;2022-09-09T05:18:31;2.3;;;1.9;;
27907;SDS011;15249;48.092;11.484;2022-09-09T05:19:32;2.3;;;1.9;;
27907;SDS011;15249;48.092;11.484;2022-09-09T05:20:32;2.3;;;1.9;;
27907;SDS011;15249;48.092;11.484;2022-09-09T05:21:33;2.3;;;1.9;;
27907;SDS011;15249;48.092;11.484;2022-09-09T05:22:34;2.3;;;1.9;;
27907;SDS011;15249;48.092;11.484;2022-09-09T05:23:35;2.3;;;1.9;;
27907;SDS011;15249;48.092;11.484;2022-09-09T05:24:36;2.3;;;1.9;;
27907;SDS011;15249;48.092;11.484;2022-09-09T05:25:37;2.3;;;1.9;;
27907;SDS011;15249;48.092;11.484;2022-09-09T05:26:37;2.3;;;1.9;;
27907;SDS011;15249;48.092;11.484;2022-09-09T05:27:38;2.3;;;1.9;;
27907;SDS011;15249;48.092;11.484;2022-09-09T05:28:38;2.6;;;1.7;;
27907;SDS011;15249;48.092;11.484;2022-09-09T05:29:41;2.6;;;1.7;;
27907;SDS011;15249;48.092;11.484;2022-09-09T05:30:41;2.6;;;1.7;;
27907;SDS011;15249;48.092;11.484;2022-09-09T05:31:42;2.6;;;1.7;;
27907;SDS011;15249;48.092;11.484;2022-09-09T05:32:43;2.6;;;1.7;;
27907;SDS011;15249;48.092;11.484;2022-09-09T05:33:46;2.6;;;1.7;;
27907;SDS011;15249;48.092;11.484;2022-09-09T05:34:47;2.6;;;1.7;;
27907;SDS011;15249;48.092;11.484;2022-09-09T05:35:54;2.6;;;1.7;;
27907;SDS011;15249;48.092;11.484;2022-09-09T05:36:55;2.6;;;1.7;;
27907;SDS011;15249;48.092;11.484;2022-09-09T05:37:58;2.6;;;1.7;;
27907;SDS011;15249;48.092;11.484;2022-09-09T05:39:00;2.15;;;1.9;;
27907;SDS011;15249;48.092;11.484;2022-09-09T05:40:01;2.15;;;1.9;;
27907;SDS011;15249;48.092;11.484;2022-09-09T05:41:02;2.15;;;1.9;;
27907;SDS011;15249;48.092;11.484;2022-09-09T05:42:04;2.15;;;1.9;;
27907;SDS011;15249;48.092;11.484;2022-09-09T05:43:05;2.15;;;1.9;;
27907;SDS011;15249;48.092;11.484;2022-09-09T05:44:06;2.15;;;1.9;;
27907;SDS011;15249;48.092;11.484;2022-09-09T05:45:08;2.15;;;1.9;;
27907;SDS011;15249;48.092;11.484;2022-09-09T05:46:10;2.15;;;1.9;;
27907;SDS011;15249;48.092;11.484;2022-09-09T05:47:11;2.15;;;1.9;;
27907;SDS011;15249;48.092;11.484;2022-09-09T05:48:12;2.15;;;1.9;;
27907;SDS011;15249;48.092;11.484;2022-09-09T05:49:12;2.15;;;1.9;;
27907;SDS011;15249;48.092;11.484;2022-09-09T05:50:13;2.55;;;1.7;;
27907;SDS011;15249;48.092;11.484;2022-09-09T05:51:16;2.55;;;1.7;;
27907;SDS011;15249;48.092;11.484;2022-09-09T05:52:18;2.55;;;1.7;;
27907;SDS011;15249;48.092;11.484;2022-09-09T05:53:18;2.55;;;1.7;;
27907;SDS011;15249;48.092;11.484;2022-09-09T05:54:19;2.55;;;1.7;;
27907;SDS011;15249;48.092;11.484;2022-09-09T05:55:19;2.55;;;1.7;;
27907;SDS011;15249;48.092;11.484;2022-09-09T05:56:21;2.55;;;1.7;;
27907;SDS011;15249;48.092;11.484;2022-09-09T05:57:22;2.55;;;1.7;;
27907;SDS011;15249;48.092;11.484;2022-09-09T05:58:24;2.55;;;1.7;;
27907;SDS011;15249;48.092;11.484;2022-09-09T05:59:24;2.55;;;1.7;;
27907;SDS011;15249;48.092;11.484;2022-09-09T06:00:26;2.6;;;1.7;;
27907;SDS011;15249;48.092;11.484;2022-09-09T06:01:27;2.6;;;1.7;;
27907;SDS011;15249;48.092;11.484;2022-09-09T06:02:29;2.6;;;1.7;;
27907;SDS011;15249;48.092;11.484;2022-09-09T06:03:30;2.6;;;1.7;;
27907;SDS011;15249;48.092;11.484;2022-09-09T06:04:31;2.6;;;1.7;;
27907;SDS011;15249;48.092;11.484;2022-09-09T06:05:31;2.6;;;1.7;;
27907;SDS011;15249;48.092;11.484;2022-09-09T06:06:37;2.6;;;1.7;;
27907;SDS011;15249;48.092;11.484;2022-09-09T06:07:42;2.6;;;1.7;;
27907;SDS011;15249;48.092;11.484;2022-09-09T06:08:44;2.6;;;1.7;;
27907;SDS011;15249;48.092;11.484;2022-09-09T06:09:45;2.6;;;1.7;;
27907;SDS011;15249;48.092;11.484;2022-09-09T06:10:45;1.9;;;1.7;;
27907;SDS011;15249;48.092;11.484;2022-09-09T06:11:45;1.9;;;1.7;;
27907;SDS011;15249;48.092;11.484;2022-09-09T06:12:46;1.9;;;1.7;;
27907;SDS011;15249;48.092;11.484;2022-09-09T06:13:47;1.9;;;1.7;;
27907;SDS011;15249;48.092;11.484;2022-09-09T06:14:50;1.9;;;1.7;;
27907;SDS011;15249;48.092;11.484;2022-09-09T06:15:52;1.9;;;1.7;;
27907;SDS011;15249;48.092;11.484;2022-09-09T06:16:52;1.9;;;1.7;;
27907;SDS011;15249;48.092;11.484;2022-09-09T06:17:54;1.9;;;1.7;;
27907;SDS011;15249;48.092;11.484;2022-09-09T06:18:55;1.9;;;1.7;;
27907;SDS011;15249;48.092;11.484;2022-09-09T06:19:57;1.9;;;1.7;;
27907;SDS011;15249;48.092;11.484;2022-09-09T06:20:58;1.9;;;1.7;;
27907;SDS011;15249;48.092;11.484;2022-09-09T06:22:00;2.3;;;1.7;;
27907;SDS011;15249;48.092;11.484;2022-09-09T06:23:00;2.3;;;1.7;;
27907;SDS011;15249;48.092;11.484;2022-09-09T06:24:01;2.3;;;1.7;;
27907;SDS011;15249;48.092;11.484;2022-09-09T06:25:02;2.3;;;1.7;;
27907;SDS011;15249;48.092;11.484;2022-09-09T06:26:04;2.3;;;1.7;;